Ship Status Report: callsign V7AO6

sailwx.info

Track history (hours):
 
Tides and Currents Weather Stations Pressure Air Temp Water Temp Dewpoint Dewpoint Depression Visibility Wind Speed Wind Dir Waves Ship Positions

Callsign V7AO6 (name unknown)

Last reported at 2017-Aug-20 02:38 UTC. Time now 2017-Nov-23 10:56 UTC.
Position N 24°30' W 016°19'.
Warning: this ship's position is months out of date.

Date/timePositionNaut miles runAvg speedWind from/ knotsBaromVisibWave heightAir tempDewpointWater temp
2017-Aug-20 02:38N 24°30' W 016°19'614.2
2017-Aug-20 02:11N 24°35' W 016°15'314.0
2017-Aug-20 02:00N 24°37' W 016°14'814.2
2017-Aug-20 01:27N 24°43' W 016°08'2514.1
2017-Aug-19 23:43N 25°03' W 015°53'313.5
2017-Aug-19 23:29N 25°06' W 015°51'713.5
2017-Aug-19 23:00N 25°11' W 015°46'1913.5
2017-Aug-19 21:38N 25°26' W 015°35'214.0
2017-Aug-19 21:27N 25°29' W 015°33'613.9
2017-Aug-19 21:00N 25°34' W 015°30'713.9
2017-Aug-19 20:30N 25°39' W 015°25'713.9
2017-Aug-19 20:00N 25°45' W 015°21'1113.7
2017-Aug-19 19:12N 25°54' W 015°14'313.5
2017-Aug-19 19:00N 25°56' W 015°12'913.4
2017-Aug-19 18:21N 26°04' W 015°06'2513.5
2017-Aug-19 16:29N 26°24' W 014°51'4413.4
2017-Aug-19 13:10N 27°01' W 014°23'313.5
2017-Aug-19 12:55N 27°04' W 014°21'713.8
2017-Aug-19 12:25N 27°09' W 014°16'614.0
2017-Aug-19 11:59N 27°14' W 014°12'714.4
2017-Aug-19 11:30N 27°20' W 014°07'714.2
2017-Aug-19 11:00N 27°25' W 014°02'713.8
2017-Aug-19 10:31N 27°31' W 013°59'714.1
2017-Aug-19 10:01N 27°37' W 013°55'714.2
2017-Aug-19 09:31N 27°43' W 013°51'714.1
2017-Aug-19 09:01N 27°49' W 013°46'713.9
2017-Aug-19 08:31N 27°55' W 013°42'713.8
2017-Aug-19 08:00N 28°01' W 013°38'713.7
2017-Aug-19 07:30N 28°07' W 013°34'713.9
2017-Aug-19 07:01N 28°13' W 013°30'714.0
2017-Aug-19 06:30N 28°19' W 013°26'714.2
2017-Aug-19 06:00N 28°25' W 013°21'714.2
2017-Aug-19 05:30N 28°31' W 013°17'714.1
2017-Aug-19 05:00N 28°37' W 013°13'714.0
2017-Aug-19 04:30N 28°43' W 013°09'714.0
2017-Aug-19 04:00N 28°49' W 013°04'714.0
2017-Aug-19 03:30N 28°55' W 013°00'713.8
2017-Aug-19 03:00N 29°00' W 012°56'714.0
2017-Aug-19 02:30N 29°06' W 012°52'713.7
2017-Aug-19 02:00N 29°12' W 012°48'713.7
2017-Aug-19 01:30N 29°18' W 012°43'713.7
2017-Aug-19 01:00N 29°24' W 012°39'813.5
2017-Aug-19 00:24N 29°31' W 012°34'613.4
2017-Aug-18 23:59N 29°36' W 012°31'1013.5
2017-Aug-18 23:16N 29°44' W 012°25'313.5
2017-Aug-18 23:00N 29°47' W 012°23'713.5
2017-Aug-18 22:29N 29°53' W 012°19'613.4
2017-Aug-18 22:00N 29°58' W 012°15'713.6
2017-Aug-18 21:30N 30°04' W 012°10'713.5
2017-Aug-18 21:00N 30°10' W 012°06'713.6
2017-Aug-18 20:30N 30°15' W 012°02'713.5
2017-Aug-18 20:00N 30°21' W 011°58'713.6
2017-Aug-18 19:30N 30°27' W 011°54'713.5
2017-Aug-18 19:00N 30°33' W 011°50'713.4
2017-Aug-18 18:28N 30°39' W 011°45'613.6
2017-Aug-18 18:00N 30°44' W 011°41'713.8
2017-Aug-18 17:31N 30°50' W 011°37'713.7
2017-Aug-18 17:00N 30°56' W 011°33'713.9
2017-Aug-18 16:31N 31°02' W 011°29'713.7
2017-Aug-18 16:00N 31°08' W 011°24'713.5
2017-Aug-18 15:30N 31°14' W 011°21'612.8
2017-Aug-18 15:00N 31°19' W 011°18'612.8
2017-Aug-18 14:30N 31°25' W 011°14'1312.9
2017-Aug-18 13:30N 31°36' W 011°06'713.2
2017-Aug-18 13:00N 31°41' W 011°01'713.3
2017-Aug-18 12:30N 31°46' W 010°57'713.4
2017-Aug-18 12:00N 31°51' W 010°51'713.3
2017-Aug-18 11:30N 31°56' W 010°47'713.5
2017-Aug-18 10:59N 32°02' W 010°42'1014.0
2017-Aug-18 10:16N 32°11' W 010°36'413.9
2017-Aug-18 10:00N 32°14' W 010°33'1114.0
2017-Aug-18 09:14N 32°24' W 010°28'713.9
2017-Aug-18 08:45N 32°30' W 010°24'413.8
2017-Aug-18 08:29N 32°33' W 010°22'3313.6
2017-Aug-18 06:04N 32°55' W 009°53'1013.5
2017-Aug-18 05:20N 33°02' W 009°45'513.3
2017-Aug-18 04:56N 33°06' W 009°40'2813.7
2017-Aug-18 02:53N 33°24' W 009°15'513.9
2017-Aug-18 02:30N 33°28' W 009°11'714.0
2017-Aug-18 02:00N 33°33' W 009°05'1114.0
2017-Aug-18 01:13N 33°40' W 008°54'414.1
2017-Aug-18 00:58N 33°42' W 008°51'614.2
2017-Aug-18 00:30N 33°47' W 008°45'714.3
2017-Aug-18 00:00N 33°52' W 008°39'714.3
2017-Aug-17 23:30N 33°57' W 008°33'714.1
2017-Aug-17 23:00N 34°01' W 008°26'714.0
2017-Aug-17 22:29N 34°06' W 008°20'713.8
2017-Aug-17 21:59N 34°11' W 008°14'713.6
2017-Aug-17 21:28N 34°16' W 008°07'813.6
2017-Aug-17 20:51N 34°21' W 007°60'513.6
2017-Aug-17 20:30N 34°24' W 007°56'713.7
2017-Aug-17 19:59N 34°29' W 007°49'714.1
2017-Aug-17 19:30N 34°34' W 007°43'714.3
2017-Aug-17 19:00N 34°39' W 007°37'714.3
2017-Aug-17 18:29N 34°44' W 007°30'714.3
2017-Aug-17 18:00N 34°48' W 007°24'714.3
2017-Aug-17 17:30N 34°53' W 007°17'714.0
2017-Aug-17 17:00N 34°58' W 007°12'713.6
2017-Aug-17 16:30N 35°03' W 007°06'714.2
2017-Aug-17 16:01N 35°07' W 006°59'714.0
2017-Aug-17 15:31N 35°11' W 006°52'713.5
2017-Aug-17 15:00N 35°16' W 006°46'713.5
2017-Aug-17 14:30N 35°20' W 006°40'713.5
2017-Aug-17 14:00N 35°25' W 006°34'813.3
2017-Aug-17 13:24N 35°31' W 006°27'513.2
2017-Aug-17 13:00N 35°34' W 006°22'713.2
2017-Aug-17 12:26N 35°40' W 006°16'3712.2
2017-Aug-17 09:22N 35°58' W 005°36'512.7
2017-Aug-17 09:00N 35°59' W 005°30'611.5
2017-Aug-17 08:30N 36°02' W 005°24'5 9.9
2017-Aug-17 08:00N 36°07' W 005°23'1 2.0
2017-Aug-17 07:18N 36°08' W 005°23'0 0.3
2017-Aug-17 07:00N 36°08' W 005°23'0 0.1
2017-Aug-17 06:14N 36°08' W 005°23'0 0.0
2017-Aug-17 05:59N 36°08' W 005°23'0 0.0
2017-Aug-17 05:30N 36°08' W 005°23'0 0.1
2017-Aug-17 05:00N 36°08' W 005°23'0 0.1
2017-Aug-17 04:28N 36°08' W 005°23'0 0.0
2017-Aug-17 04:00N 36°08' W 005°23'0 0.1
2017-Aug-17 03:26N 36°08' W 005°23'0 0.0
2017-Aug-17 03:00N 36°08' W 005°23'0 0.1
2017-Aug-17 02:28N 36°08' W 005°23'0 0.0
2017-Aug-17 02:00N 36°08' W 005°23'0 0.1
2017-Aug-17 01:29N 36°08' W 005°23'1 1.7
2017-Aug-17 00:59N 36°08' W 005°23'3 5.5
2017-Aug-17 00:30N 36°05' W 005°21'4 8.6
2017-Aug-17 00:00N 36°06' W 005°15'20612.9
2017-Aug-16 08:06N 36°29' W 001°02'714.5
2017-Aug-16 07:39N 36°31' W 000°54'314.4
2017-Aug-16 07:28N 36°32' W 000°51'714.3
2017-Aug-16 07:00N 36°33' W 000°43'814.4
2017-Aug-16 06:26N 36°35' W 000°33'714.5
2017-Aug-16 05:58N 36°37' W 000°25'1014.4
2017-Aug-16 05:18N 36°40' W 000°14'414.2
2017-Aug-16 04:59N 36°41' W 000°09'714.3
2017-Aug-16 04:29N 36°44' W 000°00'714.0
2017-Aug-16 04:00N 36°44' E 000°08'713.6
2017-Aug-16 03:30N 36°46' E 000°16'613.0
2017-Aug-16 03:00N 36°47' E 000°24'713.2
2017-Aug-16 02:30N 36°49' E 000°32'713.7
2017-Aug-16 02:00N 36°51' E 000°41'713.8
2017-Aug-16 01:30N 36°52' E 000°49'713.5
2017-Aug-16 01:00N 36°54' E 000°57'713.4
2017-Aug-16 00:30N 36°56' E 001°05'1114.0
2017-Aug-15 23:43N 36°58' E 001°19'314.3
2017-Aug-15 23:30N 36°59' E 001°22'714.1
2017-Aug-15 23:00N 37°01' E 001°31'714.3
2017-Aug-15 22:30N 37°03' E 001°39'714.3
2017-Aug-15 22:00N 37°05' E 001°48'714.2
2017-Aug-15 21:30N 37°07' E 001°56'714.1
2017-Aug-15 21:00N 37°09' E 002°05'714.0
2017-Aug-15 20:30N 37°11' E 002°13'713.9
2017-Aug-15 20:01N 37°12' E 002°22'713.8
2017-Aug-15 19:30N 37°14' E 002°30'713.6
2017-Aug-15 19:00N 37°16' E 002°39'713.7
2017-Aug-15 18:30N 37°17' E 002°47'713.7
2017-Aug-15 18:00N 37°19' E 002°55'713.6
2017-Aug-15 17:30N 37°20' E 003°04'714.0
2017-Aug-15 17:01N 37°21' E 003°12'714.4
2017-Aug-15 16:30N 37°21' E 003°22'714.3
2017-Aug-15 16:00N 37°22' E 003°31'714.5
2017-Aug-15 15:30N 37°22' E 003°40'714.3
2017-Aug-15 15:00N 37°23' E 003°49'714.2
2017-Aug-15 14:31N 37°23' E 003°57'714.4
2017-Aug-15 14:00N 37°24' E 004°07'714.2
2017-Aug-15 13:31N 37°24' E 004°15'714.2
2017-Aug-15 13:00N 37°25' E 004°24'713.8
2017-Aug-15 12:30N 37°25' E 004°33'714.0
2017-Aug-15 12:01N 37°26' E 004°42'714.3
2017-Aug-15 11:30N 37°26' E 004°51'714.4
2017-Aug-15 11:01N 37°27' E 004°60'714.3
2017-Aug-15 10:31N 37°27' E 005°09'714.0
2017-Aug-15 10:00N 37°28' E 005°18'713.8
2017-Aug-15 09:30N 37°28' E 005°26'713.9
2017-Aug-15 09:01N 37°29' E 005°35'714.0
2017-Aug-15 08:30N 37°29' E 005°44'714.1
2017-Aug-15 08:00N 37°30' E 005°53'714.2
2017-Aug-15 07:30N 37°30' E 006°02'714.1
2017-Aug-15 06:59N 37°31' E 006°11'913.9
2017-Aug-15 06:21N 37°31' E 006°22'2613.4
2017-Aug-15 04:26N 37°33' E 006°54'813.1
2017-Aug-15 03:51N 37°34' E 007°04'512.9
2017-Aug-15 03:28N 37°34' E 007°10'2413.0
2017-Aug-15 01:38N 37°36' E 007°40'213.4
2017-Aug-15 01:29N 37°36' E 007°43'1613.9
2017-Aug-15 00:22N 37°37' E 008°02'514.5
2017-Aug-14 23:59N 37°37' E 008°09'714.7
2017-Aug-14 23:29N 37°37' E 008°18'714.7
2017-Aug-14 23:00N 37°37' E 008°27'714.5
2017-Aug-14 22:29N 37°37' E 008°37'714.1
2017-Aug-14 22:01N 37°37' E 008°45'713.8
2017-Aug-14 21:29N 37°38' E 008°54'713.8
2017-Aug-14 21:00N 37°38' E 009°03'713.5
2017-Aug-14 20:30N 37°38' E 009°11'713.7
2017-Aug-14 19:59N 37°38' E 009°20'713.8
2017-Aug-14 19:28N 37°38' E 009°29'613.8
2017-Aug-14 19:00N 37°38' E 009°37'713.8
2017-Aug-14 18:30N 37°38' E 009°46'713.9
2017-Aug-14 18:00N 37°38' E 009°55'714.1
2017-Aug-14 17:29N 37°38' E 010°04'714.1
2017-Aug-14 17:00N 37°38' E 010°13'714.1
2017-Aug-14 16:30N 37°38' E 010°22'714.1
2017-Aug-14 16:00N 37°36' E 010°30'714.1
2017-Aug-14 15:30N 37°35' E 010°39'714.0
2017-Aug-14 15:00N 37°34' E 010°48'714.0
2017-Aug-14 14:29N 37°32' E 010°57'713.6
2017-Aug-14 13:59N 37°29' E 011°04'713.8
2017-Aug-14 13:27N 37°25' E 011°12'8013.9
2017-Aug-14 07:43N 36°53' E 012°43'313.9
2017-Aug-14 07:30N 36°52' E 012°47'713.8
2017-Aug-14 07:00N 36°50' E 012°55'713.8
2017-Aug-14 06:30N 36°47' E 013°03'713.8
2017-Aug-14 05:58N 36°45' E 013°12'614.0
2017-Aug-14 05:30N 36°43' E 013°20'714.0
2017-Aug-14 05:00N 36°41' E 013°28'713.9
2017-Aug-14 04:30N 36°39' E 013°36'713.9
2017-Aug-14 04:00N 36°37' E 013°45'713.9
2017-Aug-14 03:30N 36°34' E 013°52'714.4
2017-Aug-14 03:00N 36°32' E 014°01'714.5
2017-Aug-14 02:30N 36°29' E 014°09'714.4
2017-Aug-14 02:01N 36°27' E 014°18'714.2
2017-Aug-14 01:30N 36°24' E 014°26'714.0
2017-Aug-14 01:00N 36°22' E 014°34'713.9
2017-Aug-14 00:30N 36°20' E 014°43'713.9
2017-Aug-13 23:59N 36°18' E 014°51'713.7
2017-Aug-13 23:30N 36°16' E 014°59'40512.5
2017-Aug-12 15:02N 36°29' E 023°22'2213.7
2017-Aug-12 13:27N 36°49' E 023°33'2614.2
2017-Aug-12 11:35N 37°11' E 023°51'214.1
2017-Aug-12 11:28N 37°13' E 023°52'714.3
2017-Aug-12 11:01N 37°18' E 023°56'714.1
2017-Aug-12 10:29N 37°24' E 024°01'713.4
2017-Aug-12 09:58N 37°31' E 024°05'613.0
2017-Aug-12 09:28N 37°36' E 024°10'913.5
2017-Aug-12 08:48N 37°44' E 024°16'413.3
2017-Aug-12 08:30N 37°46' E 024°20'1613.8
2017-Aug-12 07:20N 37°57' E 024°36'514.5
2017-Aug-12 06:58N 38°01' E 024°39'1014.7
2017-Aug-12 06:18N 38°10' E 024°44'515.4
2017-Aug-12 06:00N 38°15' E 024°45'815.2
2017-Aug-12 05:30N 38°22' E 024°47'714.5
2017-Aug-12 05:00N 38°29' E 024°49'714.4
2017-Aug-12 04:30N 38°36' E 024°51'714.3
2017-Aug-12 03:59N 38°44' E 024°53'1113.3
2017-Aug-12 03:10N 38°54' E 024°50'214.1
2017-Aug-12 03:00N 38°56' E 024°48'1113.9
2017-Aug-12 02:13N 39°06' E 024°41'1013.9
2017-Aug-12 01:31N 39°14' E 024°35'514.4
2017-Aug-12 01:10N 39°18' E 024°31'414.1
2017-Aug-12 00:53N 39°22' E 024°29'514.1
2017-Aug-12 00:30N 39°27' E 024°25'1013.8
2017-Aug-11 23:46N 39°35' E 024°18'413.4
2017-Aug-11 23:30N 39°36' E 024°14'713.5
2017-Aug-11 23:00N 39°38' E 024°05'813.5
2017-Aug-11 22:27N 39°40' E 023°56'613.3
2017-Aug-11 21:58N 39°42' E 023°48'613.6
2017-Aug-11 21:30N 39°44' E 023°40'713.7
2017-Aug-11 20:58N 39°46' E 023°31'714.1
2017-Aug-11 20:30N 39°48' E 023°23'714.0
2017-Aug-11 19:58N 39°50' E 023°13'713.6
2017-Aug-11 19:29N 39°55' E 023°09'  
Track history (hours):
 
Tides and Currents Weather Stations Pressure Air Temp Water Temp Dewpoint Dewpoint Depression Visibility Wind Speed Wind Dir Waves Ship Positions

Callsign V7AO6 (name unknown)

Last reported at 2017-Aug-20 02:38 UTC. Time now 2017-Nov-23 10:56 UTC.
Position N 24°30' W 016°19'.
Warning: this ship's position is months out of date.

Date/timePositionNaut miles runAvg speedWind from/ knotsBaromVisibWave heightAir tempDewpointWater temp
2017-Aug-20 02:38N 24°30' W 016°19'614.2
2017-Aug-20 02:11N 24°35' W 016°15'314.0
2017-Aug-20 02:00N 24°37' W 016°14'814.2
2017-Aug-20 01:27N 24°43' W 016°08'2514.1
2017-Aug-19 23:43N 25°03' W 015°53'313.5
2017-Aug-19 23:29N 25°06' W 015°51'713.5
2017-Aug-19 23:00N 25°11' W 015°46'1913.5
2017-Aug-19 21:38N 25°26' W 015°35'214.0
2017-Aug-19 21:27N 25°29' W 015°33'613.9
2017-Aug-19 21:00N 25°34' W 015°30'713.9
2017-Aug-19 20:30N 25°39' W 015°25'713.9
2017-Aug-19 20:00N 25°45' W 015°21'1113.7
2017-Aug-19 19:12N 25°54' W 015°14'313.5
2017-Aug-19 19:00N 25°56' W 015°12'913.4
2017-Aug-19 18:21N 26°04' W 015°06'2513.5
2017-Aug-19 16:29N 26°24' W 014°51'4413.4
2017-Aug-19 13:10N 27°01' W 014°23'313.5
2017-Aug-19 12:55N 27°04' W 014°21'713.8
2017-Aug-19 12:25N 27°09' W 014°16'614.0
2017-Aug-19 11:59N 27°14' W 014°12'714.4
2017-Aug-19 11:30N 27°20' W 014°07'714.2
2017-Aug-19 11:00N 27°25' W 014°02'713.8
2017-Aug-19 10:31N 27°31' W 013°59'714.1
2017-Aug-19 10:01N 27°37' W 013°55'714.2
2017-Aug-19 09:31N 27°43' W 013°51'714.1
2017-Aug-19 09:01N 27°49' W 013°46'713.9
2017-Aug-19 08:31N 27°55' W 013°42'713.8
2017-Aug-19 08:00N 28°01' W 013°38'713.7
2017-Aug-19 07:30N 28°07' W 013°34'713.9
2017-Aug-19 07:01N 28°13' W 013°30'714.0
2017-Aug-19 06:30N 28°19' W 013°26'714.2
2017-Aug-19 06:00N 28°25' W 013°21'714.2
2017-Aug-19 05:30N 28°31' W 013°17'714.1
2017-Aug-19 05:00N 28°37' W 013°13'714.0
2017-Aug-19 04:30N 28°43' W 013°09'714.0
2017-Aug-19 04:00N 28°49' W 013°04'714.0
2017-Aug-19 03:30N 28°55' W 013°00'713.8
2017-Aug-19 03:00N 29°00' W 012°56'714.0
2017-Aug-19 02:30N 29°06' W 012°52'713.7
2017-Aug-19 02:00N 29°12' W 012°48'713.7
2017-Aug-19 01:30N 29°18' W 012°43'713.7
2017-Aug-19 01:00N 29°24' W 012°39'813.5
2017-Aug-19 00:24N 29°31' W 012°34'613.4
2017-Aug-18 23:59N 29°36' W 012°31'1013.5
2017-Aug-18 23:16N 29°44' W 012°25'313.5
2017-Aug-18 23:00N 29°47' W 012°23'713.5
2017-Aug-18 22:29N 29°53' W 012°19'613.4
2017-Aug-18 22:00N 29°58' W 012°15'713.6
2017-Aug-18 21:30N 30°04' W 012°10'713.5
2017-Aug-18 21:00N 30°10' W 012°06'713.6
2017-Aug-18 20:30N 30°15' W 012°02'713.5
2017-Aug-18 20:00N 30°21' W 011°58'713.6
2017-Aug-18 19:30N 30°27' W 011°54'713.5
2017-Aug-18 19:00N 30°33' W 011°50'713.4
2017-Aug-18 18:28N 30°39' W 011°45'613.6
2017-Aug-18 18:00N 30°44' W 011°41'713.8
2017-Aug-18 17:31N 30°50' W 011°37'713.7
2017-Aug-18 17:00N 30°56' W 011°33'713.9
2017-Aug-18 16:31N 31°02' W 011°29'713.7
2017-Aug-18 16:00N 31°08' W 011°24'713.5
2017-Aug-18 15:30N 31°14' W 011°21'612.8
2017-Aug-18 15:00N 31°19' W 011°18'612.8
2017-Aug-18 14:30N 31°25' W 011°14'1312.9
2017-Aug-18 13:30N 31°36' W 011°06'713.2
2017-Aug-18 13:00N 31°41' W 011°01'713.3
2017-Aug-18 12:30N 31°46' W 010°57'713.4
2017-Aug-18 12:00N 31°51' W 010°51'713.3
2017-Aug-18 11:30N 31°56' W 010°47'713.5
2017-Aug-18 10:59N 32°02' W 010°42'1014.0
2017-Aug-18 10:16N 32°11' W 010°36'413.9
2017-Aug-18 10:00N 32°14' W 010°33'1114.0
2017-Aug-18 09:14N 32°24' W 010°28'713.9
2017-Aug-18 08:45N 32°30' W 010°24'413.8
2017-Aug-18 08:29N 32°33' W 010°22'3313.6
2017-Aug-18 06:04N 32°55' W 009°53'1013.5
2017-Aug-18 05:20N 33°02' W 009°45'513.3
2017-Aug-18 04:56N 33°06' W 009°40'2813.7
2017-Aug-18 02:53N 33°24' W 009°15'513.9
2017-Aug-18 02:30N 33°28' W 009°11'714.0
2017-Aug-18 02:00N 33°33' W 009°05'1114.0
2017-Aug-18 01:13N 33°40' W 008°54'414.1
2017-Aug-18 00:58N 33°42' W 008°51'614.2
2017-Aug-18 00:30N 33°47' W 008°45'714.3
2017-Aug-18 00:00N 33°52' W 008°39'714.3
2017-Aug-17 23:30N 33°57' W 008°33'714.1
2017-Aug-17 23:00N 34°01' W 008°26'714.0
2017-Aug-17 22:29N 34°06' W 008°20'713.8
2017-Aug-17 21:59N 34°11' W 008°14'713.6
2017-Aug-17 21:28N 34°16' W 008°07'813.6
2017-Aug-17 20:51N 34°21' W 007°60'513.6
2017-Aug-17 20:30N 34°24' W 007°56'713.7
2017-Aug-17 19:59N 34°29' W 007°49'714.1
2017-Aug-17 19:30N 34°34' W 007°43'714.3
2017-Aug-17 19:00N 34°39' W 007°37'714.3
2017-Aug-17 18:29N 34°44' W 007°30'714.3
2017-Aug-17 18:00N 34°48' W 007°24'714.3
2017-Aug-17 17:30N 34°53' W 007°17'714.0
2017-Aug-17 17:00N 34°58' W 007°12'713.6
2017-Aug-17 16:30N 35°03' W 007°06'714.2
2017-Aug-17 16:01N 35°07' W 006°59'714.0
2017-Aug-17 15:31N 35°11' W 006°52'713.5
2017-Aug-17 15:00N 35°16' W 006°46'713.5
2017-Aug-17 14:30N 35°20' W 006°40'713.5
2017-Aug-17 14:00N 35°25' W 006°34'813.3
2017-Aug-17 13:24N 35°31' W 006°27'513.2
2017-Aug-17 13:00N 35°34' W 006°22'713.2
2017-Aug-17 12:26N 35°40' W 006°16'3712.2
2017-Aug-17 09:22N 35°58' W 005°36'512.7
2017-Aug-17 09:00N 35°59' W 005°30'611.5
2017-Aug-17 08:30N 36°02' W 005°24'5 9.9
2017-Aug-17 08:00N 36°07' W 005°23'1 2.0
2017-Aug-17 07:18N 36°08' W 005°23'0 0.3
2017-Aug-17 07:00N 36°08' W 005°23'0 0.1
2017-Aug-17 06:14N 36°08' W 005°23'0 0.0
2017-Aug-17 05:59N 36°08' W 005°23'0 0.0
2017-Aug-17 05:30N 36°08' W 005°23'0 0.1
2017-Aug-17 05:00N 36°08' W 005°23'0 0.1
2017-Aug-17 04:28N 36°08' W 005°23'0 0.0
2017-Aug-17 04:00N 36°08' W 005°23'0 0.1
2017-Aug-17 03:26N 36°08' W 005°23'0 0.0
2017-Aug-17 03:00N 36°08' W 005°23'0 0.1
2017-Aug-17 02:28N 36°08' W 005°23'0 0.0
2017-Aug-17 02:00N 36°08' W 005°23'0 0.1
2017-Aug-17 01:29N 36°08' W 005°23'1 1.7
2017-Aug-17 00:59N 36°08' W 005°23'3 5.5
2017-Aug-17 00:30N 36°05' W 005°21'4 8.6
2017-Aug-17 00:00N 36°06' W 005°15'20612.9
2017-Aug-16 08:06N 36°29' W 001°02'714.5
2017-Aug-16 07:39N 36°31' W 000°54'314.4
2017-Aug-16 07:28N 36°32' W 000°51'714.3
2017-Aug-16 07:00N 36°33' W 000°43'814.4
2017-Aug-16 06:26N 36°35' W 000°33'714.5
2017-Aug-16 05:58N 36°37' W 000°25'1014.4
2017-Aug-16 05:18N 36°40' W 000°14'414.2
2017-Aug-16 04:59N 36°41' W 000°09'714.3
2017-Aug-16 04:29N 36°44' W 000°00'714.0
2017-Aug-16 04:00N 36°44' E 000°08'713.6
2017-Aug-16 03:30N 36°46' E 000°16'613.0
2017-Aug-16 03:00N 36°47' E 000°24'713.2
2017-Aug-16 02:30N 36°49' E 000°32'713.7
2017-Aug-16 02:00N 36°51' E 000°41'713.8
2017-Aug-16 01:30N 36°52' E 000°49'713.5
2017-Aug-16 01:00N 36°54' E 000°57'713.4
2017-Aug-16 00:30N 36°56' E 001°05'1114.0
2017-Aug-15 23:43N 36°58' E 001°19'314.3
2017-Aug-15 23:30N 36°59' E 001°22'714.1
2017-Aug-15 23:00N 37°01' E 001°31'714.3
2017-Aug-15 22:30N 37°03' E 001°39'714.3
2017-Aug-15 22:00N 37°05' E 001°48'714.2
2017-Aug-15 21:30N 37°07' E 001°56'714.1
2017-Aug-15 21:00N 37°09' E 002°05'714.0
2017-Aug-15 20:30N 37°11' E 002°13'713.9
2017-Aug-15 20:01N 37°12' E 002°22'713.8
2017-Aug-15 19:30N 37°14' E 002°30'713.6
2017-Aug-15 19:00N 37°16' E 002°39'713.7
2017-Aug-15 18:30N 37°17' E 002°47'713.7
2017-Aug-15 18:00N 37°19' E 002°55'713.6
2017-Aug-15 17:30N 37°20' E 003°04'714.0
2017-Aug-15 17:01N 37°21' E 003°12'714.4
2017-Aug-15 16:30N 37°21' E 003°22'714.3
2017-Aug-15 16:00N 37°22' E 003°31'714.5
2017-Aug-15 15:30N 37°22' E 003°40'714.3
2017-Aug-15 15:00N 37°23' E 003°49'714.2
2017-Aug-15 14:31N 37°23' E 003°57'714.4
2017-Aug-15 14:00N 37°24' E 004°07'714.2
2017-Aug-15 13:31N 37°24' E 004°15'714.2
2017-Aug-15 13:00N 37°25' E 004°24'713.8
2017-Aug-15 12:30N 37°25' E 004°33'714.0
2017-Aug-15 12:01N 37°26' E 004°42'714.3
2017-Aug-15 11:30N 37°26' E 004°51'714.4
2017-Aug-15 11:01N 37°27' E 004°60'714.3
2017-Aug-15 10:31N 37°27' E 005°09'714.0
2017-Aug-15 10:00N 37°28' E 005°18'713.8
2017-Aug-15 09:30N 37°28' E 005°26'713.9
2017-Aug-15 09:01N 37°29' E 005°35'714.0
2017-Aug-15 08:30N 37°29' E 005°44'714.1
2017-Aug-15 08:00N 37°30' E 005°53'714.2
2017-Aug-15 07:30N 37°30' E 006°02'714.1
2017-Aug-15 06:59N 37°31' E 006°11'913.9
2017-Aug-15 06:21N 37°31' E 006°22'2613.4
2017-Aug-15 04:26N 37°33' E 006°54'813.1
2017-Aug-15 03:51N 37°34' E 007°04'512.9
2017-Aug-15 03:28N 37°34' E 007°10'2413.0
2017-Aug-15 01:38N 37°36' E 007°40'213.4
2017-Aug-15 01:29N 37°36' E 007°43'1613.9
2017-Aug-15 00:22N 37°37' E 008°02'514.5
2017-Aug-14 23:59N 37°37' E 008°09'714.7
2017-Aug-14 23:29N 37°37' E 008°18'714.7
2017-Aug-14 23:00N 37°37' E 008°27'714.5
2017-Aug-14 22:29N 37°37' E 008°37'714.1
2017-Aug-14 22:01N 37°37' E 008°45'713.8
2017-Aug-14 21:29N 37°38' E 008°54'713.8
2017-Aug-14 21:00N 37°38' E 009°03'713.5
2017-Aug-14 20:30N 37°38' E 009°11'713.7
2017-Aug-14 19:59N 37°38' E 009°20'713.8
2017-Aug-14 19:28N 37°38' E 009°29'613.8
2017-Aug-14 19:00N 37°38' E 009°37'713.8
2017-Aug-14 18:30N 37°38' E 009°46'713.9
2017-Aug-14 18:00N 37°38' E 009°55'714.1
2017-Aug-14 17:29N 37°38' E 010°04'714.1
2017-Aug-14 17:00N 37°38' E 010°13'714.1
2017-Aug-14 16:30N 37°38' E 010°22'714.1
2017-Aug-14 16:00N 37°36' E 010°30'714.1
2017-Aug-14 15:30N 37°35' E 010°39'714.0
2017-Aug-14 15:00N 37°34' E 010°48'714.0
2017-Aug-14 14:29N 37°32' E 010°57'713.6
2017-Aug-14 13:59N 37°29' E 011°04'713.8
2017-Aug-14 13:27N 37°25' E 011°12'8013.9
2017-Aug-14 07:43N 36°53' E 012°43'313.9
2017-Aug-14 07:30N 36°52' E 012°47'713.8
2017-Aug-14 07:00N 36°50' E 012°55'713.8
2017-Aug-14 06:30N 36°47' E 013°03'713.8
2017-Aug-14 05:58N 36°45' E 013°12'614.0
2017-Aug-14 05:30N 36°43' E 013°20'714.0
2017-Aug-14 05:00N 36°41' E 013°28'713.9
2017-Aug-14 04:30N 36°39' E 013°36'713.9
2017-Aug-14 04:00N 36°37' E 013°45'713.9
2017-Aug-14 03:30N 36°34' E 013°52'714.4
2017-Aug-14 03:00N 36°32' E 014°01'714.5
2017-Aug-14 02:30N 36°29' E 014°09'714.4
2017-Aug-14 02:01N 36°27' E 014°18'714.2
2017-Aug-14 01:30N 36°24' E 014°26'714.0
2017-Aug-14 01:00N 36°22' E 014°34'713.9
2017-Aug-14 00:30N 36°20' E 014°43'713.9
2017-Aug-13 23:59N 36°18' E 014°51'713.7
2017-Aug-13 23:30N 36°16' E 014°59'40512.5
2017-Aug-12 15:02N 36°29' E 023°22'2213.7
2017-Aug-12 13:27N 36°49' E 023°33'2614.2
2017-Aug-12 11:35N 37°11' E 023°51'214.1
2017-Aug-12 11:28N 37°13' E 023°52'714.3
2017-Aug-12 11:01N 37°18' E 023°56'714.1
2017-Aug-12 10:29N 37°24' E 024°01'713.4
2017-Aug-12 09:58N 37°31' E 024°05'613.0
2017-Aug-12 09:28N 37°36' E 024°10'913.5
2017-Aug-12 08:48N 37°44' E 024°16'413.3
2017-Aug-12 08:30N 37°46' E 024°20'1613.8
2017-Aug-12 07:20N 37°57' E 024°36'514.5
2017-Aug-12 06:58N 38°01' E 024°39'1014.7
2017-Aug-12 06:18N 38°10' E 024°44'515.4
2017-Aug-12 06:00N 38°15' E 024°45'815.2
2017-Aug-12 05:30N 38°22' E 024°47'714.5
2017-Aug-12 05:00N 38°29' E 024°49'714.4
2017-Aug-12 04:30N 38°36' E 024°51'714.3
2017-Aug-12 03:59N 38°44' E 024°53'1113.3
2017-Aug-12 03:10N 38°54' E 024°50'214.1
2017-Aug-12 03:00N 38°56' E 024°48'1113.9
2017-Aug-12 02:13N 39°06' E 024°41'1013.9
2017-Aug-12 01:31N 39°14' E 024°35'514.4
2017-Aug-12 01:10N 39°18' E 024°31'414.1
2017-Aug-12 00:53N 39°22' E 024°29'514.1
2017-Aug-12 00:30N 39°27' E 024°25'1013.8
2017-Aug-11 23:46N 39°35' E 024°18'413.4
2017-Aug-11 23:30N 39°36' E 024°14'713.5
2017-Aug-11 23:00N 39°38' E 024°05'813.5
2017-Aug-11 22:27N 39°40' E 023°56'613.3
2017-Aug-11 21:58N 39°42' E 023°48'613.6
2017-Aug-11 21:30N 39°44' E 023°40'713.7
2017-Aug-11 20:58N 39°46' E 023°31'714.1
2017-Aug-11 20:30N 39°48' E 023°23'714.0
2017-Aug-11 19:58N 39°50' E 023°13'713.6
2017-Aug-11 19:29N 39°55' E 023°09'  

Dump ship's entire track history